createdAt,value
2019-03-31T00:00:39.611Z,15.70
2019-03-31T00:01:39.604Z,15.20
2019-03-31T00:02:39.595Z,15.00
2019-03-31T00:03:39.580Z,16.00
2019-03-31T00:04:39.574Z,15.70
2019-03-31T00:05:39.569Z,15.20
2019-03-31T00:06:39.561Z,15.40
2019-03-31T00:07:39.558Z,15.70
2019-03-31T00:08:39.544Z,16.00
2019-03-31T00:09:39.537Z,16.90
2019-03-31T00:10:39.537Z,16.20
2019-03-31T00:11:39.517Z,15.90
2019-03-31T00:12:39.509Z,16.00
2019-03-31T00:13:39.502Z,14.40
2019-03-31T00:14:39.494Z,14.90
2019-03-31T00:15:39.487Z,15.10
2019-03-31T00:16:39.478Z,14.20
2019-03-31T00:17:39.466Z,13.70
2019-03-31T00:18:39.459Z,12.60
2019-03-31T00:19:39.453Z,13.70
2019-03-31T00:20:39.448Z,14.00
2019-03-31T00:21:39.436Z,14.20
2019-03-31T00:22:39.427Z,13.50
2019-03-31T00:23:39.415Z,12.90
2019-03-31T00:24:39.415Z,14.00
2019-03-31T00:25:39.399Z,13.70
2019-03-31T00:26:39.391Z,13.70
2019-03-31T00:27:39.383Z,14.00
2019-03-31T00:28:39.387Z,14.60
2019-03-31T00:29:39.367Z,13.80
2019-03-31T00:30:39.355Z,13.70
2019-03-31T00:31:39.357Z,13.10
2019-03-31T00:32:39.342Z,13.50
2019-03-31T00:33:39.338Z,13.70
2019-03-31T00:34:39.324Z,13.90
2019-03-31T00:35:39.313Z,13.60
2019-03-31T00:36:39.306Z,13.70
2019-03-31T00:37:39.296Z,13.20
2019-03-31T00:38:39.289Z,13.20
2019-03-31T00:39:39.283Z,13.30
2019-03-31T00:40:39.272Z,13.00
2019-03-31T00:41:39.266Z,13.70
2019-03-31T00:42:39.256Z,14.00
2019-03-31T00:43:39.243Z,14.00
2019-03-31T00:44:39.254Z,13.60
2019-03-31T00:45:39.231Z,13.90
2019-03-31T00:46:39.223Z,14.00
2019-03-31T00:47:39.209Z,13.50
2019-03-31T00:48:39.205Z,13.00
2019-03-31T00:49:39.197Z,14.10
2019-03-31T00:50:39.189Z,13.00
2019-03-31T00:51:40.904Z,13.20
2019-03-31T00:52:39.171Z,13.40
2019-03-31T00:53:39.162Z,13.60
2019-03-31T00:54:39.153Z,15.30
2019-03-31T00:55:39.139Z,14.20
2019-03-31T00:56:39.137Z,13.60
2019-03-31T00:57:39.120Z,13.00
2019-03-31T00:58:39.116Z,13.30
2019-03-31T00:59:39.111Z,14.30
2019-03-31T01:00:39.103Z,13.50
2019-03-31T01:01:39.094Z,14.60
2019-03-31T01:02:39.086Z,14.00
2019-03-31T01:03:39.078Z,14.90
2019-03-31T01:04:39.069Z,13.80
2019-03-31T01:05:39.058Z,14.20
2019-03-31T01:06:39.050Z,13.90
2019-03-31T01:07:39.039Z,13.00
2019-03-31T01:08:39.032Z,13.30
2019-03-31T01:09:39.025Z,14.70
2019-03-31T01:10:39.013Z,14.50
2019-03-31T01:11:39.013Z,13.50
2019-03-31T01:12:38.999Z,15.10
2019-03-31T01:13:38.993Z,15.20
2019-03-31T01:14:38.981Z,14.60
2019-03-31T01:15:38.970Z,15.40
2019-03-31T01:16:38.969Z,15.10
2019-03-31T01:17:38.954Z,14.80
2019-03-31T01:18:38.946Z,14.90
2019-03-31T01:19:38.935Z,14.30
2019-03-31T01:20:38.935Z,16.00
2019-03-31T01:21:38.918Z,14.90
2019-03-31T01:22:38.908Z,14.60
2019-03-31T01:23:38.902Z,14.50
2019-03-31T01:24:38.891Z,16.50
2019-03-31T01:25:38.883Z,14.80
2019-03-31T01:26:38.876Z,15.20
2019-03-31T01:27:38.862Z,14.30
2019-03-31T01:28:40.421Z,14.80
2019-03-31T01:29:38.846Z,14.90
2019-03-31T01:30:38.836Z,14.80
2019-03-31T01:31:49.685Z,14.80
2019-03-31T01:32:38.824Z,14.00
2019-03-31T01:33:38.811Z,15.00
2019-03-31T01:34:38.806Z,15.50
2019-03-31T01:35:38.799Z,15.30
2019-03-31T01:36:38.786Z,14.50
2019-03-31T01:37:38.786Z,15.80
2019-03-31T01:38:38.777Z,14.30
2019-03-31T01:39:38.758Z,14.70
2019-03-31T01:40:38.748Z,15.20
2019-03-31T01:41:38.740Z,14.90
2019-03-31T01:42:38.730Z,14.60
2019-03-31T01:43:38.728Z,16.30
2019-03-31T01:44:38.715Z,16.10
2019-03-31T01:45:38.708Z,15.60
2019-03-31T01:46:38.697Z,15.10
2019-03-31T01:47:38.683Z,15.30
2019-03-31T01:48:38.678Z,15.10
2019-03-31T01:49:38.673Z,15.00
2019-03-31T01:50:38.670Z,14.60
2019-03-31T01:51:38.648Z,17.00
2019-03-31T01:52:38.644Z,15.40
2019-03-31T01:53:38.630Z,15.40
2019-03-31T01:54:38.623Z,14.80
2019-03-31T01:55:38.615Z,16.00
2019-03-31T01:56:38.608Z,16.10
2019-03-31T01:57:38.615Z,15.00
2019-03-31T01:58:38.590Z,16.40
2019-03-31T01:59:38.580Z,15.80
2019-03-31T02:00:38.570Z,14.80
2019-03-31T02:01:38.567Z,14.90
2019-03-31T02:02:38.553Z,15.70
2019-03-31T02:03:38.544Z,15.60
2019-03-31T02:04:38.535Z,15.60
2019-03-31T02:05:38.531Z,16.20
2019-03-31T02:06:38.519Z,16.10
2019-03-31T02:07:38.509Z,15.70
2019-03-31T02:08:38.499Z,15.90
2019-03-31T02:09:38.488Z,16.80
2019-03-31T02:10:38.484Z,15.10
2019-03-31T02:11:38.470Z,15.70
2019-03-31T02:12:38.459Z,17.60
2019-03-31T02:13:38.450Z,16.50
2019-03-31T02:14:38.444Z,16.00
2019-03-31T02:15:38.433Z,16.40
2019-03-31T02:16:38.429Z,16.00
2019-03-31T02:17:38.416Z,16.10
2019-03-31T02:18:38.408Z,17.30
2019-03-31T02:19:38.394Z,16.80
2019-03-31T02:20:38.383Z,15.90
2019-03-31T02:21:38.378Z,15.20
2019-03-31T02:22:38.395Z,16.10
2019-03-31T02:23:38.359Z,16.50
2019-03-31T02:24:38.350Z,15.50
2019-03-31T02:25:38.340Z,16.30
2019-03-31T02:26:38.333Z,16.10
2019-03-31T02:27:38.323Z,15.10
2019-03-31T02:28:38.315Z,15.50
2019-03-31T02:29:38.307Z,15.90
2019-03-31T02:30:38.298Z,15.60
2019-03-31T02:31:38.284Z,15.40
2019-03-31T02:32:38.279Z,15.60
2019-03-31T02:33:38.265Z,16.00
2019-03-31T02:34:38.261Z,15.50
2019-03-31T02:35:38.258Z,16.40
2019-03-31T02:36:38.244Z,15.70
2019-03-31T02:37:38.231Z,16.80
2019-03-31T02:38:38.222Z,16.20
2019-03-31T02:39:38.215Z,15.60
2019-03-31T02:40:38.214Z,16.10
2019-03-31T02:41:38.199Z,16.40
2019-03-31T02:42:38.189Z,16.80
2019-03-31T02:43:38.178Z,16.00
2019-03-31T02:44:38.169Z,15.50
2019-03-31T02:45:38.159Z,16.50
2019-03-31T02:46:38.151Z,15.50
2019-03-31T02:47:38.153Z,16.00
2019-03-31T02:48:38.130Z,16.90
2019-03-31T02:49:38.121Z,15.30
2019-03-31T02:50:38.110Z,15.70
2019-03-31T02:51:38.096Z,15.30
2019-03-31T02:52:38.104Z,15.60
2019-03-31T02:53:38.105Z,15.40
2019-03-31T02:54:38.082Z,14.50
2019-03-31T02:55:38.062Z,15.00
2019-03-31T02:56:38.055Z,13.80
2019-03-31T02:57:38.046Z,14.10
2019-03-31T02:58:38.049Z,14.90
2019-03-31T02:59:38.037Z,13.60
2019-03-31T03:00:38.033Z,14.80
2019-03-31T03:01:38.013Z,14.10
2019-03-31T03:02:42.131Z,13.00
2019-03-31T03:03:37.984Z,15.00
2019-03-31T03:04:37.980Z,13.60
2019-03-31T03:05:37.984Z,14.10
2019-03-31T03:06:37.970Z,15.80
2019-03-31T03:07:37.954Z,16.80
2019-03-31T03:08:37.941Z,15.50
2019-03-31T03:09:37.930Z,16.30
2019-03-31T03:10:37.930Z,14.30
2019-03-31T03:11:37.917Z,15.90
2019-03-31T03:12:37.903Z,16.00
2019-03-31T03:13:37.908Z,15.70
2019-03-31T03:14:37.889Z,15.60
2019-03-31T03:15:37.921Z,17.20
2019-03-31T03:16:37.868Z,14.90
2019-03-31T03:17:37.876Z,16.40
2019-03-31T03:18:37.842Z,15.40
2019-03-31T03:19:37.841Z,15.60
2019-03-31T03:20:37.856Z,15.80
2019-03-31T03:21:37.825Z,15.80
2019-03-31T03:22:37.813Z,17.20
2019-03-31T03:23:37.819Z,15.00
2019-03-31T03:24:37.787Z,14.30
2019-03-31T03:25:54.462Z,15.10
2019-03-31T03:26:37.778Z,14.50
2019-03-31T03:27:37.767Z,16.50
2019-03-31T03:28:37.756Z,16.80
2019-03-31T03:29:37.747Z,15.90
2019-03-31T03:30:38.107Z,16.20
2019-03-31T03:31:37.729Z,15.90
2019-03-31T03:32:37.725Z,14.90
2019-03-31T03:33:37.718Z,14.30
2019-03-31T03:34:37.709Z,14.00
2019-03-31T03:35:37.688Z,13.60
2019-03-31T03:36:37.677Z,13.50
2019-03-31T03:37:37.668Z,13.80
2019-03-31T03:38:37.663Z,13.80
2019-03-31T03:39:37.658Z,13.40
2019-03-31T03:40:37.648Z,13.40
2019-03-31T03:41:37.633Z,13.60
2019-03-31T03:42:37.623Z,12.90
2019-03-31T03:43:54.158Z,12.20
2019-03-31T03:44:37.603Z,12.70
2019-03-31T03:45:37.608Z,13.40
2019-03-31T03:46:37.587Z,12.60
2019-03-31T03:47:37.581Z,14.10
2019-03-31T03:48:37.562Z,14.30
2019-03-31T03:49:37.555Z,16.80
2019-03-31T03:50:37.548Z,20.00
2019-03-31T03:51:37.542Z,24.50
2019-03-31T03:52:37.547Z,28.10
2019-03-31T03:53:37.524Z,32.00
2019-03-31T03:54:37.510Z,32.40
2019-03-31T03:55:37.506Z,29.80
2019-03-31T03:56:37.489Z,30.00
2019-03-31T03:57:37.479Z,28.90
2019-03-31T03:58:37.472Z,27.90
2019-03-31T03:59:37.459Z,26.00
2019-03-31T04:00:37.455Z,25.40
2019-03-31T04:01:37.444Z,25.70
2019-03-31T04:02:37.434Z,24.10
2019-03-31T04:03:37.417Z,22.90
2019-03-31T04:04:37.412Z,20.90
2019-03-31T04:05:37.408Z,21.50
2019-03-31T04:06:37.405Z,27.10
2019-03-31T04:07:37.382Z,29.60
2019-03-31T04:08:37.375Z,31.40
2019-03-31T04:09:37.366Z,35.30
2019-03-31T04:10:37.357Z,29.80
2019-03-31T04:11:37.353Z,25.90
2019-03-31T04:12:37.344Z,22.50
2019-03-31T04:13:37.327Z,20.80
2019-03-31T04:14:37.324Z,19.50
2019-03-31T04:15:37.318Z,19.10
2019-03-31T04:16:37.304Z,19.30
2019-03-31T04:17:37.294Z,20.00
2019-03-31T04:18:37.282Z,19.90
2019-03-31T04:19:37.270Z,20.10
2019-03-31T04:20:39.347Z,18.60
2019-03-31T04:21:37.249Z,19.30
2019-03-31T04:22:37.262Z,19.20
2019-03-31T04:23:37.234Z,18.40
2019-03-31T04:24:37.224Z,17.80
2019-03-31T04:25:37.221Z,17.90
2019-03-31T04:26:37.202Z,18.10
2019-03-31T04:27:37.189Z,16.70
2019-03-31T04:28:37.201Z,15.60
2019-03-31T04:29:37.176Z,16.00
2019-03-31T04:30:37.166Z,15.60
2019-03-31T04:31:37.156Z,15.50
2019-03-31T04:32:38.983Z,16.40
2019-03-31T04:33:50.410Z,15.80
2019-03-31T04:34:37.128Z,16.00
2019-03-31T04:35:37.118Z,16.60
2019-03-31T04:36:37.109Z,16.60
2019-03-31T04:37:37.098Z,15.60
2019-03-31T04:38:37.090Z,15.20
2019-03-31T04:39:37.085Z,15.40
2019-03-31T04:40:37.066Z,14.50
2019-03-31T04:41:37.056Z,14.40
2019-03-31T04:42:37.052Z,13.90
2019-03-31T04:43:37.039Z,13.60
2019-03-31T04:44:37.031Z,13.40
2019-03-31T04:45:37.020Z,12.90
2019-03-31T04:46:37.010Z,13.80
2019-03-31T04:47:37.002Z,13.80
2019-03-31T04:48:36.993Z,12.80
2019-03-31T04:49:36.982Z,12.90
2019-03-31T04:50:36.966Z,13.40
2019-03-31T04:51:36.963Z,13.20
2019-03-31T04:52:36.947Z,12.80
2019-03-31T04:53:36.942Z,12.20
2019-03-31T04:54:36.930Z,13.40
2019-03-31T04:55:36.923Z,13.00
2019-03-31T04:56:36.914Z,12.90
2019-03-31T04:57:36.902Z,12.50
2019-03-31T04:58:36.895Z,12.80
2019-03-31T04:59:36.884Z,12.70
2019-03-31T05:00:36.878Z,12.80
2019-03-31T05:01:36.865Z,12.90
2019-03-31T05:02:36.875Z,12.30
2019-03-31T05:03:36.851Z,13.00
2019-03-31T05:04:36.834Z,12.20
2019-03-31T05:05:36.825Z,13.20
2019-03-31T05:06:36.814Z,12.60
2019-03-31T05:07:36.812Z,13.00
2019-03-31T05:08:36.823Z,13.50
2019-03-31T05:09:36.788Z,13.40
2019-03-31T05:10:36.780Z,13.10
2019-03-31T05:11:36.768Z,12.80
2019-03-31T05:12:36.758Z,12.20
2019-03-31T05:13:36.749Z,13.80
2019-03-31T05:14:36.736Z,12.60
2019-03-31T05:15:36.737Z,13.70
2019-03-31T05:16:36.721Z,12.80
2019-03-31T05:17:36.714Z,13.40
2019-03-31T05:18:36.712Z,12.50
2019-03-31T05:19:36.694Z,13.10
2019-03-31T05:20:36.683Z,13.90
2019-03-31T05:21:36.670Z,13.00
2019-03-31T05:22:36.659Z,13.30
2019-03-31T05:23:36.652Z,12.80
2019-03-31T05:24:36.718Z,12.50
2019-03-31T05:25:36.640Z,13.40
2019-03-31T05:26:36.620Z,13.80
2019-03-31T05:27:36.612Z,13.40
2019-03-31T05:28:36.601Z,13.40
2019-03-31T05:29:36.588Z,14.00
2019-03-31T05:30:36.584Z,13.80
2019-03-31T05:31:36.569Z,14.00
2019-03-31T05:32:36.558Z,13.70
2019-03-31T05:33:36.552Z,12.80
2019-03-31T05:34:36.556Z,13.60
2019-03-31T05:35:36.535Z,13.00
2019-03-31T05:36:36.526Z,12.60
2019-03-31T05:37:49.964Z,13.20
2019-03-31T05:38:36.503Z,12.90
2019-03-31T05:39:36.497Z,13.00
2019-03-31T05:40:36.485Z,12.90
2019-03-31T05:41:36.473Z,13.30
2019-03-31T05:42:36.470Z,13.00
2019-03-31T05:43:36.452Z,13.00
2019-03-31T05:44:36.442Z,13.10
2019-03-31T05:45:36.438Z,12.90
2019-03-31T05:46:36.428Z,13.60
2019-03-31T05:47:36.426Z,13.60
2019-03-31T05:48:36.410Z,13.10
2019-03-31T05:49:36.398Z,14.40
2019-03-31T05:50:36.393Z,12.30
2019-03-31T05:51:36.380Z,12.40
2019-03-31T05:52:36.365Z,12.90
2019-03-31T05:53:36.366Z,12.30
2019-03-31T05:54:36.364Z,12.70
2019-03-31T05:55:36.341Z,12.80
2019-03-31T05:56:36.333Z,13.30
2019-03-31T05:57:36.325Z,12.80
2019-03-31T05:58:36.315Z,13.40
2019-03-31T05:59:36.306Z,14.00
2019-03-31T06:00:36.320Z,13.20
2019-03-31T06:01:36.290Z,12.30
2019-03-31T06:02:36.279Z,13.10
2019-03-31T06:03:36.268Z,13.20
2019-03-31T06:04:36.259Z,12.80
2019-03-31T06:05:36.251Z,12.60
2019-03-31T06:06:37.212Z,13.10
2019-03-31T06:07:36.231Z,13.10
2019-03-31T06:08:36.223Z,13.70
2019-03-31T06:09:36.216Z,12.20
2019-03-31T06:10:36.207Z,12.90
2019-03-31T06:11:36.203Z,13.60
2019-03-31T06:12:36.191Z,12.80
2019-03-31T06:13:36.186Z,12.30
2019-03-31T06:14:36.175Z,13.20
2019-03-31T06:15:36.164Z,13.70
2019-03-31T06:16:36.156Z,13.20
2019-03-31T06:17:36.149Z,12.30
2019-03-31T06:18:36.142Z,13.10
2019-03-31T06:19:36.133Z,13.10
2019-03-31T06:20:36.123Z,13.30
2019-03-31T06:21:36.114Z,13.30
2019-03-31T06:22:36.110Z,13.10
2019-03-31T06:23:36.099Z,13.60
2019-03-31T06:24:36.096Z,14.20
2019-03-31T06:25:36.087Z,12.90
2019-03-31T06:26:36.076Z,13.20
2019-03-31T06:27:36.063Z,14.00
2019-03-31T06:28:36.057Z,13.80
2019-03-31T06:29:36.050Z,13.90
2019-03-31T06:30:36.043Z,14.10
2019-03-31T06:31:36.035Z,13.90
2019-03-31T06:32:36.030Z,14.20
2019-03-31T06:33:36.023Z,14.10
2019-03-31T06:34:46.687Z,14.20
2019-03-31T06:35:36.001Z,14.30
2019-03-31T06:36:36.005Z,15.50
2019-03-31T06:37:35.990Z,15.00
2019-03-31T06:38:35.984Z,14.60
2019-03-31T06:39:35.986Z,13.00
2019-03-31T06:40:35.979Z,14.00
2019-03-31T06:41:35.962Z,14.50
2019-03-31T06:42:35.953Z,14.30
2019-03-31T06:43:35.946Z,14.50
2019-03-31T06:44:38.176Z,14.40
2019-03-31T06:45:35.934Z,13.60
2019-03-31T06:46:35.943Z,14.40
2019-03-31T06:47:35.914Z,13.10
2019-03-31T06:48:35.911Z,14.10
2019-03-31T06:49:35.906Z,14.00
2019-03-31T06:50:35.896Z,14.10
2019-03-31T06:51:35.902Z,13.50
2019-03-31T06:52:35.886Z,15.30
2019-03-31T06:53:35.881Z,15.70
2019-03-31T06:54:35.870Z,14.90
2019-03-31T06:55:35.865Z,14.50
2019-03-31T06:56:35.863Z,14.80
2019-03-31T06:57:35.855Z,13.90
2019-03-31T06:58:35.857Z,13.30
2019-03-31T06:59:35.841Z,13.40
2019-03-31T07:00:35.835Z,14.40
2019-03-31T07:01:35.840Z,14.70
2019-03-31T07:02:35.821Z,13.30
2019-03-31T07:03:35.820Z,13.90
2019-03-31T07:04:35.826Z,14.30
2019-03-31T07:05:35.816Z,14.70
2019-03-31T07:06:35.809Z,14.40
2019-03-31T07:07:35.795Z,12.80
2019-03-31T07:08:35.791Z,13.20
2019-03-31T07:09:35.789Z,13.60
2019-03-31T07:10:35.795Z,13.20
2019-03-31T07:11:35.775Z,14.00
2019-03-31T07:12:35.789Z,14.70
2019-03-31T07:13:35.770Z,14.90
2019-03-31T07:14:35.763Z,13.70
2019-03-31T07:15:35.758Z,14.60
2019-03-31T07:16:35.762Z,13.70
2019-03-31T07:17:35.753Z,14.10
2019-03-31T07:18:35.760Z,14.40
2019-03-31T07:19:35.739Z,14.40
2019-03-31T07:20:35.733Z,13.80
2019-03-31T07:21:35.727Z,14.40
2019-03-31T07:22:35.730Z,13.60
2019-03-31T07:23:35.723Z,14.00
2019-03-31T07:24:35.718Z,13.90
2019-03-31T07:25:37.143Z,13.90
2019-03-31T07:26:35.704Z,14.30
2019-03-31T07:27:35.712Z,13.90
2019-03-31T07:28:35.705Z,14.50
2019-03-31T07:29:35.697Z,14.10
2019-03-31T07:30:35.699Z,14.30
2019-03-31T07:31:35.688Z,14.50
2019-03-31T07:32:35.764Z,14.60
2019-03-31T07:33:35.678Z,14.80
2019-03-31T07:34:35.671Z,14.40
2019-03-31T07:35:38.843Z,13.80
2019-03-31T07:36:35.678Z,14.00
2019-03-31T07:37:46.597Z,14.40
2019-03-31T07:38:39.317Z,16.20
2019-03-31T07:39:35.903Z,14.00
2019-03-31T07:40:35.671Z,15.70
2019-03-31T07:41:35.650Z,15.90
2019-03-31T07:42:35.640Z,14.30
2019-03-31T07:43:35.636Z,14.90
2019-03-31T07:44:35.655Z,15.90
2019-03-31T07:45:35.630Z,15.50
2019-03-31T07:46:35.624Z,15.50
2019-03-31T07:47:35.621Z,16.00
2019-03-31T07:48:35.626Z,15.80
2019-03-31T07:49:35.612Z,17.00
2019-03-31T07:50:35.610Z,16.30
2019-03-31T07:51:37.551Z,15.60
2019-03-31T07:52:35.602Z,15.10
2019-03-31T07:53:35.601Z,14.70
2019-03-31T07:54:35.594Z,15.50
2019-03-31T07:55:35.603Z,16.10
2019-03-31T07:56:35.588Z,15.20
2019-03-31T07:57:35.584Z,14.70
2019-03-31T07:58:35.595Z,14.80
2019-03-31T07:59:35.579Z,17.30
2019-03-31T08:00:35.578Z,16.10
2019-03-31T08:01:35.568Z,15.40
2019-03-31T08:02:35.567Z,15.80
2019-03-31T08:03:35.561Z,16.20
2019-03-31T08:04:35.559Z,16.80
2019-03-31T08:05:37.681Z,18.90
2019-03-31T08:06:35.550Z,20.70
2019-03-31T08:07:35.549Z,17.10
2019-03-31T08:08:35.546Z,16.40
2019-03-31T08:09:35.542Z,15.50
2019-03-31T08:10:35.539Z,16.20
2019-03-31T08:11:35.541Z,15.60
2019-03-31T08:12:35.528Z,16.30
2019-03-31T08:13:35.530Z,16.30
2019-03-31T08:14:35.524Z,16.20
2019-03-31T08:15:35.768Z,16.40
2019-03-31T08:16:35.541Z,15.60
2019-03-31T08:17:35.513Z,16.20
2019-03-31T08:18:35.510Z,16.80
2019-03-31T08:19:36.339Z,16.80
2019-03-31T08:20:35.509Z,15.80
2019-03-31T08:21:35.511Z,16.40
2019-03-31T08:22:35.496Z,16.60
2019-03-31T08:23:35.491Z,16.20
2019-03-31T08:24:35.491Z,16.30
2019-03-31T08:25:35.490Z,16.30
2019-03-31T08:26:35.484Z,16.70
2019-03-31T08:27:35.478Z,17.20
2019-03-31T08:28:35.479Z,17.20
2019-03-31T08:29:35.470Z,16.90
2019-03-31T08:30:35.470Z,16.30
2019-03-31T08:31:35.469Z,17.80
2019-03-31T08:32:35.470Z,20.30
2019-03-31T08:33:35.466Z,19.30
2019-03-31T08:34:35.458Z,18.60
2019-03-31T08:35:46.761Z,18.70
2019-03-31T08:36:35.551Z,18.20
2019-03-31T08:37:35.448Z,17.50
2019-03-31T08:38:35.439Z,18.10
2019-03-31T08:39:35.447Z,18.40
2019-03-31T08:40:37.850Z,18.20
2019-03-31T08:41:35.448Z,17.50
2019-03-31T08:42:35.437Z,17.70
2019-03-31T08:43:35.428Z,18.60
2019-03-31T08:44:35.423Z,19.80
2019-03-31T08:45:35.465Z,20.20
2019-03-31T08:46:35.428Z,21.20
2019-03-31T08:47:35.724Z,21.80
2019-03-31T08:48:35.427Z,21.50
2019-03-31T08:49:35.408Z,21.50
2019-03-31T08:50:35.404Z,20.80
2019-03-31T08:51:35.402Z,20.30
2019-03-31T08:52:35.397Z,21.40
2019-03-31T08:53:35.397Z,21.00
2019-03-31T08:54:35.391Z,20.70
2019-03-31T08:55:35.390Z,20.60
2019-03-31T08:56:35.385Z,20.50
2019-03-31T08:57:35.388Z,21.00
2019-03-31T08:58:35.403Z,21.50
2019-03-31T08:59:35.387Z,19.60
2019-03-31T09:00:35.406Z,21.30
2019-03-31T09:01:35.383Z,20.30
2019-03-31T09:02:35.367Z,20.30
2019-03-31T09:03:35.429Z,21.50
2019-03-31T09:04:35.359Z,22.80
2019-03-31T09:05:35.370Z,22.50
2019-03-31T09:06:35.364Z,23.50
2019-03-31T09:07:35.341Z,23.50
2019-03-31T09:08:35.339Z,23.90
2019-03-31T09:09:35.349Z,25.80
2019-03-31T09:10:35.341Z,24.80
2019-03-31T09:11:35.396Z,24.50
2019-03-31T09:12:35.324Z,24.70
2019-03-31T09:13:35.378Z,23.60
2019-03-31T09:14:35.327Z,23.00
2019-03-31T09:15:35.312Z,23.60
2019-03-31T09:16:35.315Z,21.90
2019-03-31T09:17:35.328Z,22.00
2019-03-31T09:18:36.306Z,20.80
2019-03-31T09:19:35.309Z,20.90
2019-03-31T09:20:35.305Z,21.40
2019-03-31T09:21:37.117Z,21.70
2019-03-31T09:22:35.292Z,21.00
2019-03-31T09:23:35.286Z,21.30
2019-03-31T09:24:35.287Z,20.50
2019-03-31T09:25:35.302Z,22.40
2019-03-31T09:26:35.278Z,21.10
2019-03-31T09:27:35.284Z,21.90
2019-03-31T09:28:35.268Z,21.80
2019-03-31T09:29:35.265Z,22.40
2019-03-31T09:30:35.281Z,23.50
2019-03-31T09:31:35.270Z,22.90
2019-03-31T09:32:35.257Z,20.80
2019-03-31T09:33:35.250Z,22.20
2019-03-31T09:34:35.251Z,21.00
2019-03-31T09:35:35.241Z,21.00
2019-03-31T09:36:35.245Z,21.00
2019-03-31T09:37:35.242Z,22.60
2019-03-31T09:38:35.238Z,22.30
2019-03-31T09:39:35.236Z,23.90
2019-03-31T09:40:35.230Z,22.80
2019-03-31T09:41:35.227Z,24.10
2019-03-31T09:42:35.219Z,26.60
2019-03-31T09:43:35.219Z,26.40
2019-03-31T09:44:35.216Z,25.90
2019-03-31T09:45:35.212Z,26.60
2019-03-31T09:46:35.208Z,26.10
2019-03-31T09:47:35.209Z,26.60
2019-03-31T09:48:35.706Z,25.90
2019-03-31T09:49:35.197Z,25.30
2019-03-31T09:50:35.197Z,25.80
2019-03-31T09:51:35.189Z,23.50
2019-03-31T09:52:35.185Z,23.90
2019-03-31T09:53:37.131Z,23.60
2019-03-31T09:54:37.128Z,25.60
2019-03-31T09:55:35.197Z,24.60
2019-03-31T09:56:35.171Z,24.60
2019-03-31T09:57:35.184Z,24.40
2019-03-31T09:58:35.185Z,25.90
2019-03-31T09:59:35.161Z,25.50
2019-03-31T10:00:35.159Z,24.60
2019-03-31T10:01:35.162Z,25.50
2019-03-31T10:02:35.153Z,25.60
2019-03-31T10:03:35.153Z,24.90
2019-03-31T10:04:35.155Z,24.40
2019-03-31T10:05:35.143Z,24.70
2019-03-31T10:06:35.142Z,25.10
2019-03-31T10:07:35.138Z,26.60
2019-03-31T10:08:35.136Z,25.80
2019-03-31T10:09:35.132Z,26.80
2019-03-31T10:10:35.131Z,27.10
2019-03-31T10:11:35.123Z,25.80
2019-03-31T10:12:36.658Z,27.10
2019-03-31T10:13:35.126Z,28.10
2019-03-31T10:14:35.114Z,29.90
2019-03-31T10:15:35.126Z,30.60
2019-03-31T10:16:35.113Z,31.60
2019-03-31T10:17:35.109Z,30.50
2019-03-31T10:18:35.113Z,31.20
2019-03-31T10:19:35.099Z,31.50
2019-03-31T10:20:36.650Z,30.90
2019-03-31T10:21:36.088Z,31.20
2019-03-31T10:22:35.095Z,30.70
2019-03-31T10:23:35.088Z,30.60
2019-03-31T10:24:35.089Z,30.80
2019-03-31T10:25:35.074Z,32.40
2019-03-31T10:26:36.656Z,31.50
2019-03-31T10:27:35.088Z,32.50
2019-03-31T10:28:35.076Z,32.70
2019-03-31T10:29:35.100Z,32.30
2019-03-31T10:30:35.072Z,33.00
2019-03-31T10:31:35.076Z,33.00
2019-03-31T10:32:35.096Z,31.00
2019-03-31T10:33:35.996Z,32.10
2019-03-31T10:34:35.053Z,33.10
2019-03-31T10:35:35.052Z,33.80
2019-03-31T10:36:44.289Z,33.80
2019-03-31T10:37:35.081Z,33.50
2019-03-31T10:38:35.221Z,32.00
2019-03-31T10:39:36.687Z,32.60
2019-03-31T10:40:35.041Z,34.10
2019-03-31T10:41:35.042Z,34.20
2019-03-31T10:42:35.054Z,34.70
2019-03-31T10:43:35.020Z,34.60
2019-03-31T10:44:35.026Z,34.80
2019-03-31T10:45:38.683Z,33.00
2019-03-31T10:46:35.018Z,35.20
2019-03-31T10:47:36.044Z,33.60
2019-03-31T10:48:35.053Z,33.10
2019-03-31T10:49:35.014Z,35.00
2019-03-31T10:50:35.019Z,34.10
2019-03-31T10:51:35.007Z,34.40
2019-03-31T10:52:35.024Z,34.30
2019-03-31T10:53:34.999Z,34.00
2019-03-31T10:54:35.011Z,35.20
2019-03-31T10:55:35.003Z,34.30
2019-03-31T10:56:35.022Z,34.10
2019-03-31T10:57:34.983Z,36.10
2019-03-31T10:58:34.990Z,34.20
2019-03-31T10:59:34.991Z,35.30
2019-03-31T11:00:35.002Z,34.40
2019-03-31T11:01:34.985Z,36.10
2019-03-31T11:02:34.988Z,35.80
2019-03-31T11:03:35.060Z,37.10
2019-03-31T11:04:34.973Z,35.10
2019-03-31T11:05:34.972Z,33.80
2019-03-31T11:06:34.970Z,33.20
2019-03-31T11:07:34.980Z,33.50
2019-03-31T11:08:34.976Z,35.10
2019-03-31T11:09:34.972Z,34.10
2019-03-31T11:10:34.968Z,33.40
2019-03-31T11:11:34.955Z,34.70
2019-03-31T11:12:34.963Z,35.80
2019-03-31T11:13:34.971Z,35.00
2019-03-31T11:14:34.954Z,35.30
2019-03-31T11:15:34.947Z,35.40
2019-03-31T11:16:34.943Z,35.90
2019-03-31T11:17:34.946Z,33.90
2019-03-31T11:18:34.940Z,34.10
2019-03-31T11:19:34.936Z,35.60
2019-03-31T11:20:34.933Z,35.00
2019-03-31T11:21:34.931Z,33.70
2019-03-31T11:22:34.930Z,34.50
2019-03-31T11:23:34.949Z,32.00
2019-03-31T11:24:34.927Z,34.20
2019-03-31T11:25:34.930Z,34.60
2019-03-31T11:26:34.924Z,35.40
2019-03-31T11:27:34.941Z,34.90
2019-03-31T11:28:34.917Z,35.90
2019-03-31T11:29:34.971Z,35.50
2019-03-31T11:30:34.911Z,34.10
2019-03-31T11:31:34.918Z,35.10
2019-03-31T11:32:34.906Z,36.50
2019-03-31T11:33:34.920Z,35.10
2019-03-31T11:34:34.948Z,34.50
2019-03-31T11:35:34.902Z,34.00
2019-03-31T11:36:34.895Z,36.70
2019-03-31T11:37:34.896Z,36.20
2019-03-31T11:38:34.905Z,34.70
2019-03-31T11:39:34.898Z,36.50
2019-03-31T11:40:34.893Z,34.90
2019-03-31T11:41:34.891Z,35.10
2019-03-31T11:42:34.884Z,35.50
2019-03-31T11:43:34.907Z,35.60
2019-03-31T11:44:34.887Z,35.30
2019-03-31T11:45:34.890Z,36.00
2019-03-31T11:46:34.882Z,36.00
2019-03-31T11:47:34.874Z,35.90
2019-03-31T11:48:34.890Z,35.10
2019-03-31T11:49:34.880Z,34.60
2019-03-31T11:50:34.871Z,37.50
2019-03-31T11:51:34.870Z,36.90
2019-03-31T11:52:34.873Z,36.30
2019-03-31T11:53:34.871Z,36.50
2019-03-31T11:54:34.867Z,36.40
2019-03-31T11:55:34.860Z,36.70
2019-03-31T11:56:34.855Z,37.60
2019-03-31T11:57:34.860Z,37.20
2019-03-31T11:58:34.852Z,36.10
2019-03-31T11:59:34.863Z,36.40
2019-03-31T12:00:34.854Z,35.20
2019-03-31T12:01:34.848Z,36.80
2019-03-31T12:02:34.848Z,36.30
2019-03-31T12:03:34.849Z,36.70
2019-03-31T12:04:34.845Z,35.00
2019-03-31T12:05:34.844Z,35.30
2019-03-31T12:06:34.841Z,36.50
2019-03-31T12:07:46.042Z,36.70
2019-03-31T12:08:34.846Z,36.30
2019-03-31T12:09:34.832Z,36.60
2019-03-31T12:10:34.837Z,36.70
2019-03-31T12:11:34.829Z,36.20
2019-03-31T12:12:34.826Z,34.70
2019-03-31T12:13:34.833Z,36.30
2019-03-31T12:14:34.814Z,36.60
2019-03-31T12:15:34.853Z,36.70
2019-03-31T12:16:34.836Z,35.20
2019-03-31T12:17:34.816Z,36.70
2019-03-31T12:18:34.813Z,36.20
2019-03-31T12:19:34.826Z,36.70
2019-03-31T12:20:34.805Z,37.60
2019-03-31T12:21:34.803Z,35.30
2019-03-31T12:22:34.803Z,35.10
2019-03-31T12:23:34.798Z,35.50
2019-03-31T12:24:34.801Z,35.20
2019-03-31T12:25:34.796Z,35.80
2019-03-31T12:26:34.795Z,35.40
2019-03-31T12:27:34.786Z,36.00
2019-03-31T12:28:34.787Z,36.00
2019-03-31T12:29:34.788Z,38.00
2019-03-31T12:30:34.784Z,34.90
2019-03-31T12:31:34.779Z,36.40
2019-03-31T12:32:38.169Z,34.30
2019-03-31T12:33:34.775Z,34.20
2019-03-31T12:34:34.779Z,37.30
2019-03-31T12:35:34.772Z,35.60
2019-03-31T12:36:34.769Z,35.00
2019-03-31T12:37:42.205Z,36.00
2019-03-31T12:38:34.765Z,35.00
2019-03-31T12:39:34.760Z,35.80
2019-03-31T12:40:34.761Z,34.30
2019-03-31T12:41:34.753Z,34.30
2019-03-31T12:42:34.753Z,34.00
2019-03-31T12:43:34.743Z,35.60
2019-03-31T12:44:34.740Z,33.60
2019-03-31T12:45:34.754Z,35.10
2019-03-31T12:46:34.758Z,33.80
2019-03-31T12:47:34.740Z,33.80
2019-03-31T12:48:34.737Z,35.50
2019-03-31T12:49:34.733Z,34.40
2019-03-31T12:50:34.726Z,34.10
2019-03-31T12:51:34.727Z,33.10
2019-03-31T12:52:46.120Z,32.90